createdAt,value
2023-02-11T00:01:28.315Z,26.95
2023-02-11T00:03:59.190Z,30.30
2023-02-11T00:06:29.396Z,30.20
2023-02-11T00:08:58.287Z,27.05
2023-02-11T00:11:30.308Z,26.88
2023-02-11T00:14:00.068Z,28.17
2023-02-11T00:16:29.413Z,26.27
2023-02-11T00:19:00.477Z,27.92
2023-02-11T00:21:29.106Z,28.20
2023-02-11T00:23:59.812Z,26.65
2023-02-11T00:26:31.740Z,28.00
2023-02-11T00:29:00.839Z,27.50
2023-02-11T00:31:30.146Z,27.50
2023-02-11T00:33:59.715Z,26.85
2023-02-11T00:36:30.397Z,32.10
2023-02-11T00:38:59.708Z,32.28
2023-02-11T00:41:29.648Z,33.30
2023-02-11T00:44:00.756Z,34.35
2023-02-11T00:46:29.159Z,35.33
2023-02-11T00:48:58.759Z,34.75
2023-02-11T00:51:27.625Z,30.73
2023-02-11T00:53:56.430Z,31.73
2023-02-11T00:56:24.819Z,33.85
2023-02-11T00:58:53.389Z,34.83
2023-02-11T01:01:21.669Z,35.05
2023-02-11T01:03:49.910Z,33.78
2023-02-11T01:06:19.504Z,33.42
2023-02-11T01:08:47.640Z,32.47
2023-02-11T01:11:19.217Z,34.42
2023-02-11T01:13:48.902Z,33.95
2023-02-11T01:16:19.064Z,37.22
2023-02-11T01:18:48.377Z,34.38
2023-02-11T01:21:20.430Z,33.85
2023-02-11T01:23:48.675Z,34.75
2023-02-11T01:26:16.986Z,34.30
2023-02-11T01:28:45.748Z,34.40
2023-02-11T01:31:14.359Z,35.85
2023-02-11T01:33:42.624Z,35.92
2023-02-11T01:36:13.140Z,34.50
2023-02-11T01:38:44.371Z,32.22
2023-02-11T01:41:15.541Z,36.70
2023-02-11T01:43:46.759Z,35.22
2023-02-11T01:46:34.646Z,34.35
2023-02-11T01:49:08.315Z,35.60
2023-02-11T01:51:40.977Z,36.08
2023-02-11T01:57:17.996Z,37.50
2023-02-11T01:59:51.855Z,35.17
2023-02-11T02:02:30.618Z,34.78
2023-02-11T02:05:17.586Z,35.33
2023-02-11T02:07:55.243Z,42.17
2023-02-11T02:10:29.009Z,35.78
2023-02-11T02:12:57.646Z,34.45
2023-02-11T02:15:30.825Z,33.95
2023-02-11T02:18:10.922Z,33.72
2023-02-11T02:21:54.945Z,33.28
2023-02-11T02:25:00.877Z,32.45
2023-02-11T02:27:49.957Z,32.50
2023-02-11T02:30:59.344Z,36.40
2023-02-11T02:33:52.534Z,33.58
2023-02-11T02:36:29.360Z,35.03
2023-02-11T02:39:05.167Z,34.20
2023-02-11T02:41:36.897Z,32.88
2023-02-11T02:44:05.729Z,35.10
2023-02-11T02:46:36.396Z,31.98
2023-02-11T02:49:13.321Z,32.78
2023-02-11T02:52:17.065Z,31.90
2023-02-11T02:55:21.988Z,30.67
2023-02-11T02:58:12.327Z,30.80
2023-02-11T03:00:50.359Z,32.28
2023-02-11T03:03:29.597Z,31.73
2023-02-11T03:06:06.943Z,33.83
2023-02-11T03:08:42.192Z,33.90
2023-02-11T03:11:12.813Z,29.52
2023-02-11T03:13:42.184Z,32.78
2023-02-11T03:16:15.201Z,36.20
2023-02-11T03:18:50.409Z,28.92
2023-02-11T03:21:21.649Z,37.08
2023-02-11T03:23:56.308Z,32.67
2023-02-11T03:26:31.625Z,31.55
2023-02-11T03:29:10.458Z,29.25
2023-02-11T03:31:48.741Z,29.25
2023-02-11T03:34:25.117Z,31.50
2023-02-11T03:37:01.343Z,31.65
2023-02-11T03:39:35.970Z,34.17
2023-02-11T03:42:08.051Z,33.95
2023-02-11T03:44:41.867Z,30.98
2023-02-11T03:47:13.839Z,33.72
2023-02-11T03:49:45.836Z,34.95
2023-02-11T03:52:17.933Z,33.30
2023-02-11T03:54:49.953Z,33.83
2023-02-11T03:57:18.285Z,32.95
2023-02-11T03:59:55.166Z,32.47
2023-02-11T04:02:26.212Z,41.63
2023-02-11T04:04:54.355Z,35.50
2023-02-11T04:07:23.973Z,43.28
2023-02-11T04:09:52.588Z,35.50
2023-02-11T04:12:20.969Z,36.55
2023-02-11T04:14:49.211Z,35.00
2023-02-11T04:17:17.648Z,36.63
2023-02-11T04:19:45.916Z,34.10
2023-02-11T04:22:14.082Z,36.55
2023-02-11T04:24:44.065Z,34.20
2023-02-11T04:27:12.288Z,34.30
2023-02-11T04:29:40.462Z,34.90
2023-02-11T04:32:08.769Z,37.15
2023-02-11T04:34:37.080Z,36.72
2023-02-11T04:37:05.635Z,36.10
2023-02-11T04:39:33.769Z,39.35
2023-02-11T04:42:03.297Z,46.47
2023-02-11T04:44:31.673Z,44.05
2023-02-11T04:47:00.126Z,40.97
2023-02-11T04:49:28.369Z,39.42
2023-02-11T04:51:56.945Z,51.83
2023-02-11T04:54:25.109Z,42.63
2023-02-11T04:56:53.322Z,42.38
2023-02-11T04:59:22.857Z,47.25
2023-02-11T05:01:50.992Z,39.45
2023-02-11T05:04:19.250Z,45.45
2023-02-11T05:06:47.417Z,41.72
2023-02-11T05:09:16.686Z,42.55
2023-02-11T05:11:45.209Z,46.10
2023-02-11T05:14:13.508Z,45.88
2023-02-11T05:16:43.034Z,44.70
2023-02-11T05:19:11.254Z,45.22
2023-02-11T05:21:40.125Z,43.40
2023-02-11T05:24:10.522Z,44.13
2023-02-11T05:26:38.806Z,46.55
2023-02-11T05:29:07.078Z,46.22
2023-02-11T05:31:35.247Z,45.50
2023-02-11T05:34:04.849Z,44.92
2023-02-11T05:36:33.535Z,42.08
2023-02-11T05:39:01.740Z,44.75
2023-02-11T05:41:29.955Z,44.38
2023-02-11T05:43:58.126Z,40.45
2023-02-11T05:46:26.317Z,43.83
2023-02-11T05:48:56.508Z,44.33
2023-02-11T05:51:26.202Z,43.25
2023-02-11T05:53:54.797Z,43.92
2023-02-11T05:56:22.975Z,45.80
2023-02-11T05:58:51.212Z,45.88
2023-02-11T06:01:19.760Z,42.72
2023-02-11T06:03:49.980Z,44.45
2023-02-11T06:06:18.436Z,44.20
2023-02-11T06:08:47.947Z,44.92
2023-02-11T06:11:17.069Z,43.90
2023-02-11T06:13:45.245Z,46.03
2023-02-11T06:16:13.448Z,43.58
2023-02-11T06:18:41.674Z,45.03
2023-02-11T06:21:11.734Z,46.85
2023-02-11T06:23:40.186Z,50.08
2023-02-11T06:26:17.410Z,40.90
2023-02-11T06:28:45.694Z,41.45
2023-02-11T06:31:15.042Z,40.72
2023-02-11T06:33:43.515Z,39.90
2023-02-11T06:36:15.940Z,37.42
2023-02-11T06:38:44.753Z,37.60
2023-02-11T06:41:16.375Z,42.05
2023-02-11T06:43:45.035Z,37.95
2023-02-11T06:46:13.827Z,37.30
2023-02-11T06:48:44.727Z,37.17
2023-02-11T06:51:15.942Z,36.10
2023-02-11T06:53:46.573Z,36.85
2023-02-11T06:56:20.273Z,38.65
2023-02-11T06:58:48.721Z,35.45
2023-02-11T07:01:17.799Z,36.95
2023-02-11T07:03:47.131Z,40.58
2023-02-11T07:06:19.111Z,40.50
2023-02-11T07:08:48.376Z,38.50
2023-02-11T07:11:21.003Z,37.65
2023-02-11T07:13:49.376Z,39.95
2023-02-11T07:16:20.237Z,38.67
2023-02-11T07:18:50.497Z,41.72
2023-02-11T07:21:22.730Z,39.72
2023-02-11T07:23:51.489Z,41.80
2023-02-11T07:26:25.650Z,48.20
2023-02-11T07:28:54.545Z,46.83
2023-02-11T07:31:25.543Z,41.63
2023-02-11T07:33:55.658Z,40.70
2023-02-11T07:36:24.438Z,48.78
2023-02-11T07:38:52.629Z,42.47
2023-02-11T07:41:24.419Z,45.20
2023-02-11T07:43:52.891Z,45.87
2023-02-11T07:46:23.626Z,46.85
2023-02-11T07:48:52.125Z,41.65
2023-02-11T07:51:22.840Z,45.00
2023-02-11T07:53:52.066Z,42.38
2023-02-11T07:56:23.491Z,47.00
2023-02-11T07:58:52.381Z,42.65
2023-02-11T08:01:25.289Z,43.00
2023-02-11T08:03:54.367Z,43.60
2023-02-11T08:06:24.969Z,42.58
2023-02-11T08:08:53.983Z,43.95
2023-02-11T08:11:25.988Z,42.53
2023-02-11T08:13:56.318Z,44.13
2023-02-11T08:16:27.089Z,45.72
2023-02-11T08:18:59.001Z,40.35
2023-02-11T08:21:27.841Z,42.77
2023-02-11T08:23:56.721Z,47.17
2023-02-11T08:26:29.750Z,43.78
2023-02-11T08:28:59.706Z,45.15
2023-02-11T08:31:31.233Z,47.65
2023-02-11T08:33:59.723Z,50.78
2023-02-11T08:36:31.743Z,44.70
2023-02-11T08:39:17.500Z,45.75
2023-02-11T08:41:49.410Z,48.13
2023-02-11T08:44:18.258Z,47.42
2023-02-11T08:46:46.840Z,50.97
2023-02-11T08:49:15.644Z,44.85
2023-02-11T08:51:44.573Z,46.40
2023-02-11T08:54:13.589Z,47.25
2023-02-11T08:56:41.865Z,50.92
2023-02-11T08:59:17.694Z,46.72
2023-02-11T09:01:47.070Z,51.60
2023-02-11T09:04:15.836Z,45.70
2023-02-11T09:06:44.292Z,46.58
2023-02-11T09:09:14.616Z,42.55
2023-02-11T09:11:45.498Z,54.13
2023-02-11T09:14:20.600Z,45.80
2023-02-11T09:16:49.748Z,44.45
2023-02-11T09:19:18.551Z,44.47
2023-02-11T09:21:47.508Z,45.13
2023-02-11T09:24:16.078Z,43.63
2023-02-11T09:26:44.740Z,41.45
2023-02-11T09:29:13.320Z,41.28
2023-02-11T09:31:42.999Z,38.92
2023-02-11T09:34:12.717Z,42.30
2023-02-11T09:36:42.055Z,39.75
2023-02-11T09:39:14.720Z,41.75
2023-02-11T09:44:38.207Z,40.85
2023-02-11T09:47:20.618Z,41.17
2023-02-11T09:49:53.800Z,46.38
2023-02-11T09:52:35.021Z,42.25
2023-02-11T09:55:05.838Z,41.20
2023-02-11T09:57:36.749Z,41.40
2023-02-11T10:00:23.411Z,41.05
2023-02-11T10:03:33.437Z,41.38
2023-02-11T10:06:27.692Z,40.33
2023-02-11T10:09:08.463Z,41.25
2023-02-11T10:11:50.500Z,40.08
2023-02-11T10:14:44.789Z,48.70
2023-02-11T10:17:27.269Z,38.95
2023-02-11T10:20:15.841Z,38.78
2023-02-11T10:22:50.302Z,37.92
2023-02-11T10:25:26.793Z,38.63
2023-02-11T10:28:00.643Z,39.42
2023-02-11T10:30:33.406Z,44.22
2023-02-11T10:33:12.535Z,42.85
2023-02-11T10:35:43.741Z,46.83
2023-02-11T10:38:12.661Z,45.50
2023-02-11T10:40:40.949Z,40.78
2023-02-11T10:43:14.423Z,39.15
2023-02-11T10:45:48.362Z,42.22
2023-02-11T10:48:44.845Z,38.75
2023-02-11T10:51:22.166Z,36.40
2023-02-11T10:53:59.966Z,43.03
2023-02-11T10:56:29.386Z,44.13
2023-02-11T10:59:01.678Z,39.85
2023-02-11T11:01:42.935Z,46.10
2023-02-11T11:04:36.414Z,38.80
2023-02-11T11:07:20.115Z,42.50
2023-02-11T11:09:53.588Z,46.00
2023-02-11T11:12:36.371Z,41.78
2023-02-11T11:15:23.012Z,43.00
2023-02-11T11:17:52.263Z,39.92
2023-02-11T11:20:28.317Z,43.05
2023-02-11T11:23:16.890Z,40.53
2023-02-11T11:25:58.187Z,40.65
2023-02-11T11:28:29.668Z,40.17
2023-02-11T11:31:00.562Z,45.22
2023-02-11T11:33:32.053Z,41.70
2023-02-11T11:36:04.969Z,40.65
2023-02-11T11:38:37.870Z,40.63
2023-02-11T11:41:24.297Z,41.17
2023-02-11T11:44:05.292Z,40.70
2023-02-11T11:46:42.102Z,40.03
2023-02-11T11:49:29.086Z,49.17
2023-02-11T11:52:09.001Z,41.25
2023-02-11T11:54:39.490Z,47.38
2023-02-11T11:57:16.465Z,42.00
2023-02-11T11:59:45.173Z,39.38
2023-02-11T12:02:51.932Z,42.63
2023-02-11T12:05:27.607Z,38.40
2023-02-11T12:08:07.073Z,41.25
2023-02-11T12:10:59.363Z,40.67
2023-02-11T12:13:43.975Z,41.13
2023-02-11T12:16:29.866Z,42.55
2023-02-11T12:19:27.796Z,47.95
2023-02-11T12:22:08.940Z,42.95
2023-02-11T12:25:06.487Z,43.42
2023-02-11T12:27:49.360Z,41.40
2023-02-11T12:33:16.776Z,41.80
2023-02-11T12:35:57.319Z,40.75
2023-02-11T12:39:00.370Z,42.00
2023-02-11T12:42:21.844Z,41.47
2023-02-11T12:45:09.940Z,41.10
2023-02-11T12:47:51.007Z,41.70
2023-02-11T12:50:29.765Z,44.58
2023-02-11T12:53:27.234Z,44.10
2023-02-11T12:56:01.596Z,40.70
2023-02-11T12:58:44.566Z,41.60
2023-02-11T13:01:22.586Z,42.88
2023-02-11T13:03:57.053Z,42.58
2023-02-11T13:06:34.651Z,40.55
2023-02-11T13:09:06.972Z,42.92
2023-02-11T13:11:41.314Z,44.85
2023-02-11T13:14:17.372Z,56.05
2023-02-11T13:16:49.973Z,43.75
2023-02-11T13:22:14.252Z,46.67
2023-02-11T13:24:45.644Z,45.90
2023-02-11T13:27:33.565Z,46.55
2023-02-11T13:30:28.512Z,45.85
2023-02-11T13:33:33.721Z,49.13
2023-02-11T13:36:24.126Z,45.95
2023-02-11T13:39:07.870Z,45.70
2023-02-11T13:41:40.826Z,46.03
2023-02-11T13:44:27.531Z,46.78
2023-02-11T13:47:01.227Z,48.50
2023-02-11T13:49:36.966Z,44.20
2023-02-11T13:52:17.479Z,44.58
2023-02-11T13:54:51.790Z,46.05
2023-02-11T13:57:41.208Z,44.35
2023-02-11T14:00:49.889Z,45.58
2023-02-11T14:03:58.138Z,42.75
2023-02-11T14:06:47.211Z,43.42
2023-02-11T14:09:41.512Z,42.72
2023-02-11T14:12:35.772Z,43.50
2023-02-11T14:15:40.990Z,41.28
2023-02-11T14:18:38.395Z,40.20
2023-02-11T14:21:14.262Z,40.83
2023-02-11T14:23:43.907Z,41.78
2023-02-11T14:26:40.813Z,40.75
2023-02-11T14:29:18.538Z,40.63
2023-02-11T14:31:56.817Z,41.17
2023-02-11T14:34:51.421Z,38.47
2023-02-11T14:37:34.773Z,37.72
2023-02-11T14:40:19.374Z,37.30
2023-02-11T14:42:47.499Z,37.03
2023-02-11T14:45:24.811Z,37.42
2023-02-11T14:47:59.391Z,39.60
2023-02-11T14:50:34.034Z,37.67
2023-02-11T14:53:03.402Z,35.78
2023-02-11T14:55:37.969Z,34.13
2023-02-11T14:58:15.188Z,36.03
2023-02-11T15:00:58.604Z,35.97
2023-02-11T15:03:35.983Z,33.03
2023-02-11T15:06:08.704Z,33.17
2023-02-11T15:11:16.566Z,33.50
2023-02-11T15:13:47.547Z,32.13
2023-02-11T15:16:20.670Z,33.40
2023-02-11T15:18:52.684Z,32.00
2023-02-11T15:21:27.445Z,32.78
2023-02-11T15:24:02.097Z,31.33
2023-02-11T15:26:32.168Z,31.88
2023-02-11T15:29:01.402Z,31.70
2023-02-11T15:31:32.558Z,32.92
2023-02-11T15:34:09.458Z,32.75
2023-02-11T15:36:38.791Z,33.53
2023-02-11T15:39:34.254Z,33.55
2023-02-11T15:42:22.516Z,32.28
2023-02-11T15:45:09.551Z,33.65
2023-02-11T15:47:38.577Z,33.53
2023-02-11T15:50:08.639Z,34.90
2023-02-11T15:52:36.968Z,34.15
2023-02-11T15:55:05.716Z,34.78
2023-02-11T15:57:36.749Z,33.88
2023-02-11T16:00:07.386Z,34.58
2023-02-11T16:02:44.974Z,33.90
2023-02-11T16:05:32.119Z,34.67
2023-02-11T16:08:01.235Z,35.40
2023-02-11T16:10:33.360Z,36.10
2023-02-11T16:13:20.718Z,33.95
2023-02-11T16:15:52.413Z,34.80
2023-02-11T16:18:39.586Z,35.92
2023-02-11T16:21:16.678Z,35.15
2023-02-11T16:23:52.053Z,36.83
2023-02-11T16:26:28.763Z,35.42
2023-02-11T16:29:12.749Z,35.75
2023-02-11T16:31:43.959Z,35.97
2023-02-11T16:34:19.233Z,36.35
2023-02-11T16:36:48.421Z,35.13
2023-02-11T16:39:18.433Z,35.38
2023-02-11T16:41:47.342Z,37.08
2023-02-11T16:44:17.516Z,37.28
2023-02-11T16:46:47.006Z,39.00
2023-02-11T16:49:22.412Z,37.92
2023-02-11T16:51:53.206Z,38.95
2023-02-11T16:54:21.860Z,39.50
2023-02-11T16:56:50.407Z,39.80
2023-02-11T16:59:20.019Z,41.03
2023-02-11T17:01:50.674Z,39.42
2023-02-11T17:04:24.780Z,42.47
2023-02-11T17:06:53.376Z,45.10
2023-02-11T17:09:28.405Z,44.97
2023-02-11T17:11:58.493Z,45.65
2023-02-11T17:14:28.126Z,43.30
2023-02-11T17:16:56.563Z,44.47
2023-02-11T17:19:24.961Z,43.35
2023-02-11T17:21:54.168Z,44.53
2023-02-11T17:24:23.295Z,43.42
2023-02-11T17:26:52.011Z,43.47
2023-02-11T17:29:23.845Z,42.80
2023-02-11T17:31:54.130Z,44.28
2023-02-11T17:34:23.680Z,46.50
2023-02-11T17:36:52.017Z,46.03
2023-02-11T17:39:20.997Z,45.20
2023-02-11T17:41:49.301Z,46.55
2023-02-11T17:44:17.471Z,47.05
2023-02-11T17:46:45.732Z,46.40
2023-02-11T17:49:15.675Z,46.88
2023-02-11T17:51:44.136Z,50.75
2023-02-11T17:54:19.682Z,48.00
2023-02-11T17:56:50.611Z,47.42
2023-02-11T17:59:19.336Z,49.30
2023-02-11T18:01:47.909Z,49.03
2023-02-11T18:04:20.028Z,48.92
2023-02-11T18:06:50.203Z,48.22
2023-02-11T18:09:18.578Z,45.42
2023-02-11T18:11:48.409Z,47.17
2023-02-11T18:14:16.580Z,49.03
2023-02-11T18:16:45.803Z,49.00
2023-02-11T18:19:14.704Z,47.75
2023-02-11T18:21:44.276Z,48.95
2023-02-11T18:24:12.549Z,47.78
2023-02-11T18:26:41.577Z,48.28
2023-02-11T18:29:10.055Z,49.28
2023-02-11T18:31:39.301Z,48.72
2023-02-11T18:34:10.608Z,49.03
2023-02-11T18:36:38.780Z,49.72
2023-02-11T18:39:08.506Z,49.38
2023-02-11T18:41:36.709Z,49.60
2023-02-11T18:44:05.290Z,54.08
2023-02-11T18:46:33.506Z,53.42
2023-02-11T18:49:01.814Z,53.97
2023-02-11T18:51:32.277Z,50.67
2023-02-11T18:54:01.114Z,52.40
2023-02-11T18:56:30.713Z,53.35
2023-02-11T18:59:01.087Z,53.10
2023-02-11T19:01:31.483Z,55.45
2023-02-11T19:04:02.792Z,55.90
2023-02-11T19:06:34.283Z,53.03
2023-02-11T19:09:09.885Z,54.45
2023-02-11T19:11:54.444Z,54.50
2023-02-11T19:14:25.461Z,119.30
2023-02-11T19:16:58.000Z,53.92
2023-02-11T19:19:29.353Z,55.63
2023-02-11T19:21:59.216Z,73.75
2023-02-11T19:24:28.991Z,57.25
2023-02-11T19:27:06.874Z,54.53
2023-02-11T19:29:35.365Z,68.55
2023-02-11T19:32:07.243Z,71.93
2023-02-11T19:34:40.943Z,63.70
2023-02-11T19:37:10.751Z,54.28
2023-02-11T19:39:39.161Z,61.80
2023-02-11T19:42:08.799Z,55.05
2023-02-11T19:44:37.023Z,82.15
2023-02-11T19:47:06.775Z,57.35
2023-02-11T19:49:35.047Z,57.33
2023-02-11T19:52:03.277Z,56.13
2023-02-11T19:54:31.455Z,53.85
2023-02-11T19:56:59.650Z,54.83
2023-02-11T19:59:29.281Z,55.67
2023-02-11T20:01:58.211Z,55.15
2023-02-11T20:04:26.486Z,57.88
2023-02-11T20:06:54.687Z,56.75
2023-02-11T20:09:23.190Z,58.80
2023-02-11T20:11:51.369Z,55.90
2023-02-11T20:14:19.652Z,56.72
2023-02-11T20:16:50.260Z,58.33
2023-02-11T20:19:22.118Z,61.33
2023-02-11T20:21:55.519Z,59.17
2023-02-11T20:24:25.582Z,61.83
2023-02-11T20:26:56.777Z,59.97
2023-02-11T20:29:25.977Z,59.08
2023-02-11T20:31:55.914Z,56.75
2023-02-11T20:34:24.972Z,57.17
2023-02-11T20:36:55.018Z,59.28
2023-02-11T20:39:25.375Z,60.10
2023-02-11T20:41:54.419Z,60.17
2023-02-11T20:44:23.582Z,58.95
2023-02-11T20:46:54.017Z,61.28
2023-02-11T20:49:25.391Z,57.17
2023-02-11T20:51:54.398Z,59.22
2023-02-11T20:54:26.887Z,58.65
2023-02-11T20:56:56.794Z,56.10
2023-02-11T20:59:25.285Z,56.30
2023-02-11T21:01:56.988Z,60.13
2023-02-11T21:04:30.429Z,56.50
2023-02-11T21:07:01.186Z,57.70
2023-02-11T21:09:33.093Z,56.53
2023-02-11T21:12:02.366Z,57.57
2023-02-11T21:14:31.586Z,56.30
2023-02-11T21:17:01.889Z,61.03
2023-02-11T21:19:31.588Z,59.33
2023-02-11T21:22:00.902Z,57.95
2023-02-11T21:24:30.740Z,59.15
2023-02-11T21:26:59.284Z,60.38
2023-02-11T21:29:27.625Z,58.92
2023-02-11T21:31:56.180Z,59.25
2023-02-11T21:34:25.189Z,60.00
2023-02-11T21:36:54.692Z,56.65
2023-02-11T21:39:23.120Z,60.22
2023-02-11T21:41:52.731Z,62.33
2023-02-11T21:44:21.015Z,58.17
2023-02-11T21:46:51.406Z,60.10
2023-02-11T21:49:21.218Z,61.10
2023-02-11T21:51:51.596Z,59.45
2023-02-11T21:54:22.787Z,63.47
2023-02-11T21:56:53.081Z,62.83
2023-02-11T21:59:21.382Z,60.97
2023-02-11T22:01:50.199Z,61.25
2023-02-11T22:04:19.699Z,60.67
2023-02-11T22:06:51.269Z,58.92
2023-02-11T22:09:22.371Z,59.95
2023-02-11T22:11:50.676Z,57.13
2023-02-11T22:14:19.068Z,59.03
2023-02-11T22:16:47.885Z,59.47
2023-02-11T22:19:16.368Z,58.42
2023-02-11T22:21:44.570Z,62.13
2023-02-11T22:24:12.926Z,61.58
2023-02-11T22:26:42.508Z,61.85
2023-02-11T22:29:10.737Z,60.58
2023-02-11T22:31:39.116Z,60.90
2023-02-11T22:34:07.885Z,58.95
2023-02-11T22:36:38.885Z,59.80
2023-02-11T22:39:09.711Z,60.47
2023-02-11T22:41:39.261Z,59.38
2023-02-11T22:44:09.258Z,58.75
2023-02-11T22:46:37.823Z,55.85
2023-02-11T22:49:07.072Z,55.55
2023-02-11T22:51:35.451Z,56.78
2023-02-11T22:54:07.006Z,55.10
2023-02-11T22:56:36.157Z,56.42
2023-02-11T22:59:07.715Z,57.75
2023-02-11T23:01:37.413Z,56.88
2023-02-11T23:04:09.231Z,57.13
2023-02-11T23:06:37.466Z,58.85
2023-02-11T23:09:06.110Z,57.10
2023-02-11T23:11:35.137Z,59.92
2023-02-11T23:14:04.199Z,59.22
2023-02-11T23:16:36.286Z,57.47
2023-02-11T23:19:07.725Z,58.70
2023-02-11T23:21:38.994Z,60.17
2023-02-11T23:24:11.572Z,59.85
2023-02-11T23:29:09.973Z,58.97
2023-02-11T23:31:43.260Z,60.85
2023-02-11T23:34:12.008Z,60.17
2023-02-11T23:36:40.214Z,61.50
2023-02-11T23:39:08.410Z,61.75
2023-02-11T23:41:36.611Z,61.90
2023-02-11T23:44:04.989Z,60.70
2023-02-11T23:46:33.288Z,62.35
2023-02-11T23:49:02.992Z,62.97
2023-02-11T23:51:31.656Z,61.05
2023-02-11T23:53:59.805Z,60.42
2023-02-11T23:56:29.226Z,63.80
2023-02-11T23:58:59.071Z,63.40
